ASN logo
Last updated: 20 October 2019
Statuts:Préliminaire
Date:lundi 11 février 2013
Heure:07:10
Type/Sous-type:Silhouette image of generic CN35 model; specific model in this crash may look slightly different
IPTN/CASA CN-235-220
Compagnie:Republique de Guinée
Immatriculation: 3X-GGG
Numéro de série: N.020
Année de Fabrication: 1992
Moteurs: 2 General Electric CT7-9C
Equipage:victimes: 5 / à bord: 5
Passagers:victimes: 6 / à bord: 6
Total:victimes: 11 / à bord: 11
Dégats de l'appareil: Détruit
Conséquences: Written off (damaged beyond repair)
Lieu de l'accident:ca 4 km S of Monrovia-Roberts International Airport (ROB) (   Libéria)
Phase de vol: En approche (APR)
Nature:Militaire
Aéroport de départ:Conakry Airport (CKY/DGCY), Guinée
Aéroport de destination:Monrovia-Roberts International Airport (ROB/GLRB), Libéria
Détails:
A CASA CN-235 transport plane was destroyed when it crashed near Charlesville, Liberia. All 11 occupants were killed, according to the Guinea's Defence Minister Camara.
The head of Guinea's armed forces, Gen Souleymane Kelefa Diallo, was on board the plane. He was leading Guinea's delegation to mark Liberia's annual Armed Forces Day.
The airplane crashed on forested sloping terrain near Charlesville, while flying an approach to runway 04 at Monrovia-Roberts International Airport (ROB), Liberia.

Sources:
» BBC
» La liste provisoire des victimes du crash d’avion (Aminiata, 11-2-2013)
» Liberia: U.S. Assists Guinean Plane Crash Probe (The New Dawn, 28-2-2013)

METAR Weather report:
07:00 UTC / 07:00 local time:
GLRB 110700Z 00000KT 3000 BR FEW 500FT FEW012 25/24 Q1010

07:30 UTC / 07:30 local time:
GLRB 110730Z 00000KT 3000 BR FEW 500FT FEW012 25/24 Q1010
Visibility 3000 m; mist; few clouds at 500ft and 1200 ft; Temperature 25°C; Dew point 24° C; Pressure: 1010 mb

08:00 UTC / 08:00 local time:
GLRB 110800Z 02003KT 4000 BR FEW 500FT SCT012 25/24 Q1011


Photos

Add your photo of this accident or aircraft

Plan
Ce plan montre l'aéroport de départ ainsi que la supposée destination du vol. La ligne fixe reliant les deux aéroports n'est pas le plan de vol exact.
La distance entre Conakry Airport et Monrovia-Roberts International Airport est de 513 km (321 miles).
Accident location: Global; accuracy within tens or hundreds of kilometers.

Les informations ci-dessus ne représentent pas l'opinion de la 'Flight Safety Foundation' ou de 'Aviation Safety Network' sur les causes de l'accident. Ces informations prélimimaires sont basées sur les faits tel qu'ils sont connus à ce jour.
languages: languages

Share